Time;durP1;ratioP1;P1;durP2;ratioP2;P2;SDS_P1;SDS_P2;PMS_P1;PMS_P2;Temp;Humidity;BMP_temperature;BMP_pressure;BME280_temperature;BME280_humidity;BME280_pressure;Samples;Min_cycle;Max_cycle;Signal;HPM_P1;HPM_P2
2023/08/08 00:02:26;;;;;;;;;0.33;0.00;;;;;26.38;37.38;100213.94;146611;572;47916;-80
2023/08/08 00:05:20;;;;;;;;;0.00;0.00;;;;;26.34;37.40;100213.13;146615;618;47020;-80
2023/08/08 00:08:12;;;;;;;;;0.00;0.00;;;;;26.32;37.40;100214.94;146612;600;47012;-82
2023/08/08 00:11:08;;;;;;;;;1.00;1.00;;;;;26.29;37.82;100219.44;146615;590;46021;-81
2023/08/08 00:14:21;;;;;;;;;0.00;0.00;;;;;26.21;38.11;100216.97;146611;585;47012;-79
2023/08/08 00:17:34;;;;;;;;;0.00;0.00;;;;;26.16;38.59;100221.47;146618;646;47010;-77
2023/08/08 00:20:42;;;;;;;;;3.67;0.67;;;;;26.13;38.27;100225.06;146613;595;46016;-83
2023/08/08 00:23:43;;;;;;;;;0.00;0.00;;;;;26.08;38.33;100220.78;146617;569;46030;-79
2023/08/08 00:26:54;;;;;;;;;0.33;0.00;;;;;26.00;38.31;100227.09;146610;588;46016;-82
2023/08/08 00:30:13;;;;;;;;;;;;;;;;;;;;;
2023/08/08 00:33:11;;;;;;;;;0.33;0.00;;;;;25.82;39.31;100224.81;146615;575;46012;-79
2023/08/08 00:36:09;;;;;;;;;0.00;0.00;;;;;25.74;39.69;100218.75;146619;599;46020;-79
2023/08/08 00:39:22;;;;;;;;;2.67;0.33;;;;;25.70;39.96;100217.03;146612;603;46916;-79
2023/08/08 00:42:18;;;;;;;;;0.00;0.00;;;;;25.63;39.90;100208.31;146615;563;46020;-78
2023/08/08 00:45:14;;;;;;;;;0.00;0.00;;;;;25.57;40.29;100208.44;146608;574;47025;-79
2023/08/08 00:48:21;;;;;;;;;;;;;;;;;;;;;
2023/08/08 00:51:23;;;;;;;;;0.00;0.00;;;;;25.39;40.57;100192.84;146613;624;47016;-79
2023/08/08 00:54:23;;;;;;;;;0.00;0.00;;;;;25.30;40.90;100202.75;146615;593;47010;-81
2023/08/08 00:57:19;;;;;;;;;2.00;0.00;;;;;25.25;41.17;100203.72;146613;578;46012;-80
2023/08/08 01:00:23;;;;;;;;;0.00;0.00;;;;;25.22;41.02;100204.62;146612;610;47020;-81
2023/08/08 01:03:22;;;;;;;;;0.00;0.00;;;;;25.29;41.14;100200.97;146610;635;47012;-83
2023/08/08 01:06:31;;;;;;;;;0.00;0.00;;;;;25.35;40.94;100197.34;146613;588;47010;-82
2023/08/08 01:09:55;;;;;;;;;0.00;0.00;;;;;25.24;41.02;100205.50;146611;612;47012;-78
2023/08/08 01:13:18;;;;;;;;;0.00;0.00;;;;;25.12;41.50;100200.38;146617;563;46020;-82
2023/08/08 01:16:25;;;;;;;;;0.00;0.00;;;;;25.01;41.28;100197.00;146612;588;46016;-82
2023/08/08 01:19:38;;;;;;;;;0.00;0.00;;;;;24.27;40.82;100081.50;146615;572;46010;-82
2023/08/08 01:22:50;;;;;;;;;1.00;0.00;;;;;24.90;40.92;100205.16;146612;629;46012;-81
2023/08/08 01:25:52;;;;;;;;;1.00;0.00;;;;;24.88;40.87;100205.16;146617;715;46020;-82
2023/08/08 01:28:57;;;;;;;;;0.00;0.00;;;;;24.93;41.20;100209.53;146611;582;47012;-82
2023/08/08 01:31:52;;;;;;;;;0.00;0.00;;;;;24.92;41.23;100213.94;146609;624;47021;-81
2023/08/08 01:35:04;;;;;;;;;0.00;0.00;;;;;24.26;40.53;100102.72;146612;604;46012;-81
2023/08/08 01:38:17;;;;;;;;;0.00;0.00;;;;;24.87;40.81;100213.16;146618;582;46010;-79
2023/08/08 01:41:42;;;;;;;;;0.00;0.00;;;;;24.59;41.02;100181.75;146613;588;46012;-79
2023/08/08 01:45:00;;;;;;;;;0.00;0.00;;;;;24.74;41.80;100215.09;146617;569;46033;-79
2023/08/08 01:48:15;;;;;;;;;1.67;0.33;;;;;24.57;41.46;100202.09;146612;586;46016;-78
2023/08/08 01:51:16;;;;;;;;;1.00;0.00;;;;;24.65;42.30;100220.56;146616;569;46020;-77
2023/08/08 01:54:08;;;;;;;;;0.00;0.00;;;;;24.64;42.72;100218.78;146607;666;47016;-78
2023/08/08 01:57:12;;;;;;;;;0.00;0.00;;;;;24.66;42.77;100214.34;146616;572;46020;-84
2023/08/08 02:00:27;;;;;;;;;0.33;0.00;;;;;24.73;42.51;100204.50;146609;683;46017;-77
2023/08/08 02:03:21;;;;;;;;;1.00;1.00;;;;;24.83;42.36;100200.84;146608;599;46020;-75
2023/08/08 02:06:19;;;;;;;;;3.00;2.00;;;;;24.87;42.68;100208.72;146613;593;46016;-82
2023/08/08 02:09:21;;;;;;;;;0.00;0.00;;;;;24.87;42.60;100207.84;146616;576;47010;-81
2023/08/08 02:12:33;;;;;;;;;0.00;0.00;;;;;24.87;42.38;100206.06;146612;582;46016;-78
2023/08/08 02:15:36;;;;;;;;;0.00;0.00;;;;;24.86;42.86;100204.31;146619;565;46038;-81
2023/08/08 02:18:34;;;;;;;;;0.00;0.00;;;;;24.87;42.84;100206.06;146608;574;48913;-83
2023/08/08 02:21:45;;;;;;;;;;;;;;;;;;;;;
2023/08/08 02:24:53;;;;;;;;;0.67;0.67;;;;;24.86;42.94;100193.72;146612;571;47016;-79
2023/08/08 02:27:49;;;;;;;;;0.00;0.00;;;;;24.80;43.01;100196.47;146616;575;46020;-85
2023/08/08 02:30:47;;;;;;;;;0.00;0.00;;;;;24.64;43.83;100203.78;146611;626;46017;-83
2023/08/08 02:33:41;;;;;;;;;2.00;2.00;;;;;24.49;43.88;100197.81;146606;624;46020;-84
2023/08/08 02:36:33;;;;;;;;;1.67;1.00;;;;;24.34;44.14;100205.03;146611;580;46012;-82
2023/08/08 02:39:46;;;;;;;;;2.00;0.00;;;;;24.23;43.82;100203.41;146616;570;47014;-84
2023/08/08 02:42:44;;;;;;;;;0.33;0.33;;;;;24.26;44.26;100206.91;146615;563;46012;-78
2023/08/08 02:45:41;;;;;;;;;0.67;0.67;;;;;24.33;44.14;100210.34;146620;592;46010;-82
2023/08/08 02:48:35;;;;;;;;;0.00;0.00;;;;;24.37;44.06;100226.19;146617;697;46016;-82
2023/08/08 02:51:39;;;;;;;;;0.00;0.00;;;;;24.49;43.95;100221.66;146619;705;46020;-83
2023/08/08 02:54:37;;;;;;;;;1.00;1.00;;;;;24.57;43.96;100222.41;146618;570;46016;-83
2023/08/08 02:57:48;;;;;;;;;0.00;0.00;;;;;23.82;42.86;100091.84;146622;616;46020;-85
2023/08/08 03:00:54;;;;;;;;;1.67;1.00;;;;;24.94;43.25;100241.31;146614;593;46016;-84
2023/08/08 03:03:55;;;;;;;;;1.33;1.33;;;;;25.05;43.08;100238.50;146619;637;47010;-83
2023/08/08 03:07:02;;;;;;;;;1.33;1.33;;;;;25.09;43.12;100240.22;146616;577;46021;-85
2023/08/08 03:10:00;;;;;;;;;1.00;1.00;;;;;25.15;43.00;100253.41;146623;576;46010;-81
2023/08/08 03:13:11;;;;;;;;;0.67;0.67;;;;;25.18;42.79;100247.19;146615;631;47012;-82
2023/08/08 03:16:19;;;;;;;;;1.00;1.00;;;;;24.56;42.97;100151.75;146621;564;47014;-79
2023/08/08 03:19:21;;;;;;;;;0.33;0.33;;;;;25.13;43.97;100255.19;146616;620;46016;-81
2023/08/08 03:22:19;;;;;;;;;1.00;1.00;;;;;25.09;44.85;100254.34;146623;576;46011;-82
2023/08/08 03:25:25;;;;;;;;;1.00;1.00;;;;;24.98;43.78;100231.53;146619;589;47012;-82
2023/08/08 03:28:26;;;;;;;;;1.33;0.33;;;;;25.24;44.66;100265.66;146624;596;46010;-77
2023/08/08 03:31:30;;;;;;;;;1.33;1.33;;;;;25.37;43.44;100263.66;146617;600;46914;-86
2023/08/08 03:34:28;;;;;;;;;3.33;2.33;;;;;25.40;43.71;100267.16;146623;586;46010;-85
2023/08/08 03:37:25;;;;;;;;;0.00;0.00;;;;;25.32;43.79;100277.87;146620;585;46017;-79
2023/08/08 03:40:29;;;;;;;;;2.00;1.00;;;;;25.28;43.51;100284.13;146616;696;47020;-82
2023/08/08 03:43:34;;;;;;;;;0.33;0.00;;;;;25.25;43.71;100284.19;146619;599;46017;-81
2023/08/08 03:46:38;;;;;;;;;0.33;0.33;;;;;25.28;45.37;100289.44;146621;590;46010;-81
2023/08/08 03:49:41;;;;;;;;;0.00;0.00;;;;;25.36;46.25;100292.00;146617;606;46012;-83
2023/08/08 03:52:44;;;;;;;;;1.00;1.00;;;;;25.36;44.98;100297.31;146620;618;46014;-83
2023/08/08 03:55:49;;;;;;;;;1.00;1.00;;;;;24.51;43.68;100175.66;146616;563;47012;-82
2023/08/08 03:58:43;;;;;;;;;2.67;1.00;;;;;25.16;44.58;100312.66;146621;627;46010;-81
2023/08/08 04:01:37;;;;;;;;;1.33;1.00;;;;;24.42;45.15;100191.69;146620;653;46016;-82
2023/08/08 04:04:36;;;;;;;;;1.00;0.00;;;;;25.04;45.10;100317.19;146621;630;46020;-83
2023/08/08 04:07:36;;;;;;;;;2.00;1.00;;;;;25.06;44.95;100312.75;146609;581;48012;-81
2023/08/08 04:10:31;;;;;;;;;0.00;0.00;;;;;25.10;44.80;100329.50;146620;611;47030;-83
2023/08/08 04:13:31;;;;;;;;;0.00;0.00;;;;;25.14;44.84;100331.25;146617;577;47017;-80
2023/08/08 04:16:41;;;;;;;;;4.33;3.00;;;;;25.23;44.69;100339.03;146621;563;46010;-82
2023/08/08 04:19:35;;;;;;;;;1.00;1.00;;;;;25.26;45.24;100341.66;146615;681;46914;-80
2023/08/08 04:22:38;;;;;;;;;1.33;1.33;;;;;25.30;44.98;100350.47;146619;622;46010;-80
2023/08/08 04:25:31;;;;;;;;;0.00;0.00;;;;;25.34;45.23;100349.53;146614;569;47012;-82
2023/08/08 04:28:33;;;;;;;;;1.00;1.00;;;;;25.41;45.74;100345.84;146622;585;46010;-75
2023/08/08 04:31:25;;;;;;;;;2.00;2.00;;;;;25.45;45.80;100344.94;146616;589;46016;-77
2023/08/08 04:34:20;;;;;;;;;2.00;2.00;;;;;25.51;45.48;100346.59;146618;582;46020;-77
2023/08/08 04:37:16;;;;;;;;;2.00;2.00;;;;;25.60;46.20;100354.41;146619;577;46017;-77
2023/08/08 04:40:21;;;;;;;;;2.00;1.00;;;;;25.78;45.27;100354.09;146624;621;46010;-77
2023/08/08 04:43:15;;;;;;;;;1.00;1.00;;;;;26.04;47.54;100360.75;146617;594;46013;-80
2023/08/08 04:46:13;;;;;;;;;0.33;0.33;;;;;26.29;46.73;100366.50;146620;564;46010;-78
2023/08/08 04:49:08;;;;;;;;;2.67;2.00;;;;;26.49;46.24;100372.34;146616;569;46031;-77
2023/08/08 04:52:08;;;;;;;;;2.00;1.00;;;;;26.61;47.47;100379.22;146624;600;46010;-77
2023/08/08 04:55:00;;;;;;;;;4.00;3.00;;;;;26.75;47.71;100389.56;146619;574;46012;-77
2023/08/08 04:58:07;;;;;;;;;1.00;1.00;;;;;26.99;47.32;100397.94;146612;632;46046;-76
2023/08/08 05:01:04;;;;;;;;;1.00;1.00;;;;;27.22;46.70;100410.75;146615;723;47927;-75
